sensor_id;sensor_type;location;lat;lon;timestamp;P1;durP1;ratioP1;P2;durP2;ratioP2
12474;SDS011;6302;42.624;23.334;2023-06-14T00:01:18;13.07;;;10.57;;
12474;SDS011;6302;42.624;23.334;2023-06-14T00:03:46;11.60;;;10.17;;
12474;SDS011;6302;42.624;23.334;2023-06-14T00:06:13;13.20;;;9.97;;
12474;SDS011;6302;42.624;23.334;2023-06-14T00:08:40;11.03;;;9.93;;
12474;SDS011;6302;42.624;23.334;2023-06-14T00:11:07;9.83;;;8.83;;
12474;SDS011;6302;42.624;23.334;2023-06-14T00:13:34;11.07;;;9.27;;
12474;SDS011;6302;42.624;23.334;2023-06-14T00:16:01;11.10;;;9.53;;
12474;SDS011;6302;42.624;23.334;2023-06-14T00:18:29;9.67;;;8.67;;
12474;SDS011;6302;42.624;23.334;2023-06-14T00:20:57;9.67;;;8.37;;
12474;SDS011;6302;42.624;23.334;2023-06-14T00:23:24;8.57;;;7.67;;
12474;SDS011;6302;42.624;23.334;2023-06-14T00:25:51;9.00;;;8.20;;
12474;SDS011;6302;42.624;23.334;2023-06-14T00:28:17;8.10;;;7.30;;
12474;SDS011;6302;42.624;23.334;2023-06-14T00:30:44;9.70;;;7.43;;
12474;SDS011;6302;42.624;23.334;2023-06-14T00:33:11;7.60;;;6.87;;
12474;SDS011;6302;42.624;23.334;2023-06-14T00:35:38;8.40;;;7.27;;
12474;SDS011;6302;42.624;23.334;2023-06-14T00:38:06;10.87;;;6.97;;
12474;SDS011;6302;42.624;23.334;2023-06-14T00:40:33;7.57;;;6.50;;
12474;SDS011;6302;42.624;23.334;2023-06-14T00:43:00;8.57;;;6.47;;
12474;SDS011;6302;42.624;23.334;2023-06-14T00:45:27;7.77;;;6.33;;
12474;SDS011;6302;42.624;23.334;2023-06-14T00:47:56;7.60;;;6.77;;
12474;SDS011;6302;42.624;23.334;2023-06-14T00:50:24;7.17;;;6.10;;
12474;SDS011;6302;42.624;23.334;2023-06-14T00:52:52;12.80;;;7.73;;
12474;SDS011;6302;42.624;23.334;2023-06-14T00:55:20;8.03;;;6.93;;
12474;SDS011;6302;42.624;23.334;2023-06-14T00:57:47;9.07;;;7.17;;
12474;SDS011;6302;42.624;23.334;2023-06-14T01:00:14;7.40;;;6.50;;
12474;SDS011;6302;42.624;23.334;2023-06-14T01:02:41;8.17;;;6.53;;
12474;SDS011;6302;42.624;23.334;2023-06-14T01:05:08;9.07;;;6.87;;
12474;SDS011;6302;42.624;23.334;2023-06-14T01:07:41;8.03;;;6.50;;
12474;SDS011;6302;42.624;23.334;2023-06-14T01:10:29;9.07;;;6.90;;
12474;SDS011;6302;42.624;23.334;2023-06-14T01:13:05;7.63;;;6.80;;
12474;SDS011;6302;42.624;23.334;2023-06-14T01:15:37;7.00;;;6.30;;
12474;SDS011;6302;42.624;23.334;2023-06-14T01:18:05;7.13;;;6.43;;
12474;SDS011;6302;42.624;23.334;2023-06-14T01:20:33;7.23;;;6.53;;
12474;SDS011;6302;42.624;23.334;2023-06-14T01:23:04;6.80;;;6.20;;
12474;SDS011;6302;42.624;23.334;2023-06-14T01:25:31;8.67;;;6.97;;
12474;SDS011;6302;42.624;23.334;2023-06-14T01:27:58;9.07;;;6.97;;
12474;SDS011;6302;42.624;23.334;2023-06-14T01:30:29;8.20;;;7.13;;
12474;SDS011;6302;42.624;23.334;2023-06-14T01:32:58;8.57;;;6.60;;
12474;SDS011;6302;42.624;23.334;2023-06-14T01:35:26;9.87;;;7.10;;
12474;SDS011;6302;42.624;23.334;2023-06-14T01:37:52;7.87;;;6.67;;
12474;SDS011;6302;42.624;23.334;2023-06-14T01:40:21;8.13;;;7.23;;
12474;SDS011;6302;42.624;23.334;2023-06-14T01:42:49;7.87;;;7.07;;
12474;SDS011;6302;42.624;23.334;2023-06-14T01:45:17;7.70;;;6.90;;
12474;SDS011;6302;42.624;23.334;2023-06-14T01:47:45;7.57;;;6.87;;
12474;SDS011;6302;42.624;23.334;2023-06-14T01:50:14;10.27;;;7.10;;
12474;SDS011;6302;42.624;23.334;2023-06-14T01:52:40;8.00;;;7.20;;
12474;SDS011;6302;42.624;23.334;2023-06-14T01:55:07;7.60;;;6.90;;
12474;SDS011;6302;42.624;23.334;2023-06-14T01:57:36;7.40;;;6.50;;
12474;SDS011;6302;42.624;23.334;2023-06-14T02:00:03;7.97;;;7.17;;
12474;SDS011;6302;42.624;23.334;2023-06-14T02:02:31;7.17;;;6.10;;
12474;SDS011;6302;42.624;23.334;2023-06-14T02:04:57;7.10;;;6.13;;
12474;SDS011;6302;42.624;23.334;2023-06-14T02:07:24;7.37;;;6.60;;
12474;SDS011;6302;42.624;23.334;2023-06-14T02:09:51;8.07;;;6.87;;
12474;SDS011;6302;42.624;23.334;2023-06-14T02:12:18;6.87;;;5.57;;
12474;SDS011;6302;42.624;23.334;2023-06-14T02:14:46;7.90;;;6.70;;
12474;SDS011;6302;42.624;23.334;2023-06-14T02:17:13;7.20;;;6.60;;
12474;SDS011;6302;42.624;23.334;2023-06-14T02:19:41;6.97;;;6.27;;
12474;SDS011;6302;42.624;23.334;2023-06-14T02:22:08;7.00;;;6.30;;
12474;SDS011;6302;42.624;23.334;2023-06-14T02:24:35;7.10;;;6.40;;
12474;SDS011;6302;42.624;23.334;2023-06-14T02:27:01;8.63;;;6.70;;
12474;SDS011;6302;42.624;23.334;2023-06-14T02:29:28;6.67;;;6.07;;
12474;SDS011;6302;42.624;23.334;2023-06-14T02:31:57;7.47;;;6.50;;
12474;SDS011;6302;42.624;23.334;2023-06-14T02:34:24;8.20;;;6.30;;
12474;SDS011;6302;42.624;23.334;2023-06-14T02:36:51;7.13;;;6.43;;
12474;SDS011;6302;42.624;23.334;2023-06-14T02:39:18;6.57;;;5.97;;
12474;SDS011;6302;42.624;23.334;2023-06-14T02:41:46;6.57;;;5.97;;
12474;SDS011;6302;42.624;23.334;2023-06-14T02:44:13;6.57;;;5.97;;
12474;SDS011;6302;42.624;23.334;2023-06-14T02:46:42;7.20;;;6.57;;
12474;SDS011;6302;42.624;23.334;2023-06-14T02:49:11;8.23;;;6.07;;
12474;SDS011;6302;42.624;23.334;2023-06-14T02:51:38;6.63;;;5.93;;
12474;SDS011;6302;42.624;23.334;2023-06-14T02:54:05;7.03;;;6.33;;
12474;SDS011;6302;42.624;23.334;2023-06-14T02:56:31;8.60;;;7.10;;
12474;SDS011;6302;42.624;23.334;2023-06-14T02:58:58;7.13;;;6.47;;
12474;SDS011;6302;42.624;23.334;2023-06-14T03:01:25;8.07;;;6.80;;
12474;SDS011;6302;42.624;23.334;2023-06-14T03:03:59;8.63;;;6.23;;
12474;SDS011;6302;42.624;23.334;2023-06-14T03:06:27;7.40;;;6.70;;
12474;SDS011;6302;42.624;23.334;2023-06-14T03:08:54;9.80;;;6.97;;
12474;SDS011;6302;42.624;23.334;2023-06-14T03:11:24;7.03;;;6.33;;
12474;SDS011;6302;42.624;23.334;2023-06-14T03:13:51;7.97;;;6.73;;
12474;SDS011;6302;42.624;23.334;2023-06-14T03:16:18;7.50;;;6.80;;
12474;SDS011;6302;42.624;23.334;2023-06-14T03:18:48;7.77;;;6.97;;
12474;SDS011;6302;42.624;23.334;2023-06-14T03:21:15;8.47;;;7.37;;
12474;SDS011;6302;42.624;23.334;2023-06-14T03:23:43;7.50;;;6.63;;
12474;SDS011;6302;42.624;23.334;2023-06-14T03:26:10;7.73;;;6.60;;
12474;SDS011;6302;42.624;23.334;2023-06-14T03:28:40;7.60;;;6.90;;
12474;SDS011;6302;42.624;23.334;2023-06-14T03:31:06;8.07;;;6.60;;
12474;SDS011;6302;42.624;23.334;2023-06-14T03:33:34;8.17;;;6.43;;
12474;SDS011;6302;42.624;23.334;2023-06-14T03:36:01;8.47;;;7.00;;
12474;SDS011;6302;42.624;23.334;2023-06-14T03:38:28;7.77;;;6.77;;
12474;SDS011;6302;42.624;23.334;2023-06-14T03:40:56;7.80;;;7.07;;
12474;SDS011;6302;42.624;23.334;2023-06-14T03:43:23;9.10;;;7.67;;
12474;SDS011;6302;42.624;23.334;2023-06-14T03:45:50;8.67;;;7.37;;
12474;SDS011;6302;42.624;23.334;2023-06-14T03:48:17;9.17;;;7.00;;
12474;SDS011;6302;42.624;23.334;2023-06-14T03:50:43;7.70;;;6.97;;
12474;SDS011;6302;42.624;23.334;2023-06-14T03:53:10;7.90;;;7.13;;
12474;SDS011;6302;42.624;23.334;2023-06-14T03:55:37;7.27;;;6.57;;
12474;SDS011;6302;42.624;23.334;2023-06-14T03:58:06;8.70;;;7.37;;
12474;SDS011;6302;42.624;23.334;2023-06-14T04:00:32;7.53;;;6.67;;
12474;SDS011;6302;42.624;23.334;2023-06-14T04:03:01;8.90;;;7.60;;
12474;SDS011;6302;42.624;23.334;2023-06-14T04:05:28;9.43;;;7.13;;
12474;SDS011;6302;42.624;23.334;2023-06-14T04:07:55;8.10;;;7.30;;
12474;SDS011;6302;42.624;23.334;2023-06-14T04:10:22;9.57;;;8.10;;
12474;SDS011;6302;42.624;23.334;2023-06-14T04:12:49;8.77;;;7.93;;
12474;SDS011;6302;42.624;23.334;2023-06-14T04:15:18;11.10;;;8.63;;
12474;SDS011;6302;42.624;23.334;2023-06-14T04:17:45;8.93;;;8.03;;
12474;SDS011;6302;42.624;23.334;2023-06-14T04:20:12;8.63;;;7.73;;
12474;SDS011;6302;42.624;23.334;2023-06-14T04:22:38;9.20;;;7.47;;
12474;SDS011;6302;42.624;23.334;2023-06-14T04:25:06;8.20;;;7.40;;
12474;SDS011;6302;42.624;23.334;2023-06-14T04:27:33;10.17;;;7.77;;
12474;SDS011;6302;42.624;23.334;2023-06-14T04:30:01;10.57;;;8.73;;
12474;SDS011;6302;42.624;23.334;2023-06-14T04:32:30;8.73;;;7.83;;
12474;SDS011;6302;42.624;23.334;2023-06-14T04:34:58;8.63;;;7.73;;
12474;SDS011;6302;42.624;23.334;2023-06-14T04:37:27;10.37;;;7.90;;
12474;SDS011;6302;42.624;23.334;2023-06-14T04:39:54;9.03;;;8.13;;
12474;SDS011;6302;42.624;23.334;2023-06-14T04:42:22;11.43;;;8.60;;
12474;SDS011;6302;42.624;23.334;2023-06-14T04:44:50;10.10;;;8.63;;
12474;SDS011;6302;42.624;23.334;2023-06-14T04:47:21;11.87;;;9.00;;
12474;SDS011;6302;42.624;23.334;2023-06-14T04:49:49;9.00;;;8.10;;
12474;SDS011;6302;42.624;23.334;2023-06-14T04:52:18;9.40;;;8.20;;
12474;SDS011;6302;42.624;23.334;2023-06-14T04:54:46;10.27;;;9.27;;
12474;SDS011;6302;42.624;23.334;2023-06-14T04:57:14;11.40;;;9.13;;
12474;SDS011;6302;42.624;23.334;2023-06-14T04:59:42;10.60;;;9.27;;
12474;SDS011;6302;42.624;23.334;2023-06-14T05:02:09;11.37;;;9.50;;
12474;SDS011;6302;42.624;23.334;2023-06-14T05:04:36;9.67;;;8.63;;
12474;SDS011;6302;42.624;23.334;2023-06-14T05:07:06;9.27;;;8.37;;
12474;SDS011;6302;42.624;23.334;2023-06-14T05:09:34;10.27;;;9.27;;
12474;SDS011;6302;42.624;23.334;2023-06-14T05:12:01;10.73;;;9.43;;
12474;SDS011;6302;42.624;23.334;2023-06-14T05:14:28;11.97;;;10.50;;
12474;SDS011;6302;42.624;23.334;2023-06-14T05:16:55;11.20;;;9.90;;
12474;SDS011;6302;42.624;23.334;2023-06-14T05:19:22;13.00;;;10.63;;
12474;SDS011;6302;42.624;23.334;2023-06-14T05:21:49;12.83;;;10.87;;
12474;SDS011;6302;42.624;23.334;2023-06-14T05:24:17;13.63;;;10.23;;
12474;SDS011;6302;42.624;23.334;2023-06-14T05:26:44;13.70;;;10.07;;
12474;SDS011;6302;42.624;23.334;2023-06-14T05:29:11;13.50;;;10.70;;
12474;SDS011;6302;42.624;23.334;2023-06-14T05:31:38;13.23;;;10.27;;
12474;SDS011;6302;42.624;23.334;2023-06-14T05:34:05;12.20;;;10.17;;
12474;SDS011;6302;42.624;23.334;2023-06-14T05:36:32;14.00;;;11.57;;
12474;SDS011;6302;42.624;23.334;2023-06-14T05:38:58;14.23;;;11.57;;
12474;SDS011;6302;42.624;23.334;2023-06-14T05:41:29;14.93;;;11.37;;
12474;SDS011;6302;42.624;23.334;2023-06-14T05:43:56;13.20;;;10.90;;
12474;SDS011;6302;42.624;23.334;2023-06-14T05:46:25;13.77;;;11.20;;
12474;SDS011;6302;42.624;23.334;2023-06-14T05:48:52;12.87;;;11.57;;
12474;SDS011;6302;42.624;23.334;2023-06-14T05:51:19;19.57;;;11.43;;
12474;SDS011;6302;42.624;23.334;2023-06-14T05:53:47;15.87;;;11.70;;
12474;SDS011;6302;42.624;23.334;2023-06-14T05:56:14;15.60;;;13.40;;
12474;SDS011;6302;42.624;23.334;2023-06-14T05:58:44;16.47;;;13.87;;
12474;SDS011;6302;42.624;23.334;2023-06-14T06:01:11;13.50;;;12.07;;
12474;SDS011;6302;42.624;23.334;2023-06-14T06:03:38;13.83;;;12.37;;
12474;SDS011;6302;42.624;23.334;2023-06-14T06:06:05;17.33;;;13.30;;
12474;SDS011;6302;42.624;23.334;2023-06-14T06:08:32;16.40;;;13.87;;
12474;SDS011;6302;42.624;23.334;2023-06-14T06:11:00;16.37;;;13.67;;
12474;SDS011;6302;42.624;23.334;2023-06-14T06:13:27;17.40;;;13.03;;
12474;SDS011;6302;42.624;23.334;2023-06-14T06:15:55;16.60;;;13.53;;
12474;SDS011;6302;42.624;23.334;2023-06-14T06:18:22;16.00;;;13.07;;
12474;SDS011;6302;42.624;23.334;2023-06-14T06:20:48;16.33;;;12.10;;
12474;SDS011;6302;42.624;23.334;2023-06-14T06:23:15;14.60;;;12.80;;
12474;SDS011;6302;42.624;23.334;2023-06-14T06:25:42;14.67;;;12.70;;
12474;SDS011;6302;42.624;23.334;2023-06-14T06:28:09;14.97;;;13.23;;
12474;SDS011;6302;42.624;23.334;2023-06-14T06:30:36;17.93;;;12.83;;
12474;SDS011;6302;42.624;23.334;2023-06-14T06:33:04;16.97;;;12.10;;
12474;SDS011;6302;42.624;23.334;2023-06-14T06:35:30;13.87;;;11.93;;
12474;SDS011;6302;42.624;23.334;2023-06-14T06:37:58;17.27;;;11.83;;
12474;SDS011;6302;42.624;23.334;2023-06-14T06:40:25;14.60;;;12.73;;
12474;SDS011;6302;42.624;23.334;2023-06-14T06:42:52;15.73;;;12.87;;
12474;SDS011;6302;42.624;23.334;2023-06-14T06:45:19;15.67;;;10.87;;
12474;SDS011;6302;42.624;23.334;2023-06-14T06:47:46;14.93;;;11.83;;
12474;SDS011;6302;42.624;23.334;2023-06-14T06:50:14;13.43;;;11.60;;
12474;SDS011;6302;42.624;23.334;2023-06-14T06:52:41;14.77;;;10.83;;
12474;SDS011;6302;42.624;23.334;2023-06-14T06:55:10;12.90;;;11.50;;
12474;SDS011;6302;42.624;23.334;2023-06-14T06:57:38;18.63;;;11.97;;
12474;SDS011;6302;42.624;23.334;2023-06-14T07:00:05;15.90;;;11.97;;
12474;SDS011;6302;42.624;23.334;2023-06-14T07:02:34;14.17;;;11.47;;
12474;SDS011;6302;42.624;23.334;2023-06-14T07:05:01;13.30;;;11.03;;
12474;SDS011;6302;42.624;23.334;2023-06-14T07:07:29;12.67;;;11.37;;
12474;SDS011;6302;42.624;23.334;2023-06-14T07:09:56;14.50;;;11.77;;
12474;SDS011;6302;42.624;23.334;2023-06-14T07:12:23;14.40;;;11.40;;
12474;SDS011;6302;42.624;23.334;2023-06-14T07:27:04;13.17;;;11.77;;
12474;SDS011;6302;42.624;23.334;2023-06-14T07:29:32;14.00;;;11.90;;
12474;SDS011;6302;42.624;23.334;2023-06-14T07:31:59;14.33;;;11.90;;
12474;SDS011;6302;42.624;23.334;2023-06-14T07:34:26;14.27;;;10.85;;
12474;SDS011;6302;42.624;23.334;2023-06-14T07:36:53;12.50;;;11.23;;
12474;SDS011;6302;42.624;23.334;2023-06-14T07:39:20;14.97;;;12.37;;
12474;SDS011;6302;42.624;23.334;2023-06-14T07:41:47;14.07;;;11.77;;
12474;SDS011;6302;42.624;23.334;2023-06-14T07:44:15;14.07;;;12.47;;
12474;SDS011;6302;42.624;23.334;2023-06-14T07:46:42;12.07;;;10.87;;
12474;SDS011;6302;42.624;23.334;2023-06-14T07:49:11;14.27;;;11.00;;
12474;SDS011;6302;42.624;23.334;2023-06-14T07:51:38;13.47;;;11.20;;
12474;SDS011;6302;42.624;23.334;2023-06-14T07:54:05;16.73;;;11.83;;
12474;SDS011;6302;42.624;23.334;2023-06-14T07:56:33;11.75;;;10.57;;
12474;SDS011;6302;42.624;23.334;2023-06-14T07:59:00;12.27;;;11.03;;
12474;SDS011;6302;42.624;23.334;2023-06-14T08:01:29;14.03;;;11.20;;
12474;SDS011;6302;42.624;23.334;2023-06-14T08:03:55;13.10;;;10.67;;
12474;SDS011;6302;42.624;23.334;2023-06-14T08:06:22;11.60;;;10.43;;
12474;SDS011;6302;42.624;23.334;2023-06-14T08:08:49;12.67;;;11.37;;
12474;SDS011;6302;42.624;23.334;2023-06-14T08:11:16;13.70;;;10.40;;
12474;SDS011;6302;42.624;23.334;2023-06-14T08:13:43;11.00;;;9.80;;
12474;SDS011;6302;42.624;23.334;2023-06-14T08:16:09;14.30;;;10.73;;
12474;SDS011;6302;42.624;23.334;2023-06-14T08:18:38;12.70;;;10.98;;
12474;SDS011;6302;42.624;23.334;2023-06-14T08:21:04;11.50;;;10.40;;
12474;SDS011;6302;42.624;23.334;2023-06-14T08:23:32;13.47;;;11.43;;
12474;SDS011;6302;42.624;23.334;2023-06-14T08:25:59;13.38;;;11.27;;
12474;SDS011;6302;42.624;23.334;2023-06-14T08:28:26;13.20;;;11.80;;
12474;SDS011;6302;42.624;23.334;2023-06-14T08:30:53;15.03;;;12.50;;
12474;SDS011;6302;42.624;23.334;2023-06-14T08:33:20;12.87;;;11.47;;
12474;SDS011;6302;42.624;23.334;2023-06-14T08:35:48;11.63;;;10.45;;
12474;SDS011;6302;42.624;23.334;2023-06-14T08:38:15;15.77;;;12.23;;
12474;SDS011;6302;42.624;23.334;2023-06-14T08:40:42;13.00;;;11.67;;
12474;SDS011;6302;42.624;23.334;2023-06-14T08:43:09;18.20;;;12.27;;
12474;SDS011;6302;42.624;23.334;2023-06-14T08:45:38;15.23;;;11.40;;
12474;SDS011;6302;42.624;23.334;2023-06-14T08:48:06;13.00;;;11.60;;
12474;SDS011;6302;42.624;23.334;2023-06-14T08:50:34;15.03;;;12.23;;
12474;SDS011;6302;42.624;23.334;2023-06-14T08:53:09;16.63;;;11.70;;
12474;SDS011;6302;42.624;23.334;2023-06-14T08:55:44;18.63;;;12.90;;
12474;SDS011;6302;42.624;23.334;2023-06-14T08:58:12;14.83;;;12.40;;
12474;SDS011;6302;42.624;23.334;2023-06-14T09:00:40;13.60;;;12.10;;
12474;SDS011;6302;42.624;23.334;2023-06-14T09:03:08;13.65;;;11.35;;
12474;SDS011;6302;42.624;23.334;2023-06-14T09:05:38;14.90;;;12.60;;
12474;SDS011;6302;42.624;23.334;2023-06-14T09:08:05;14.60;;;13.10;;
12474;SDS011;6302;42.624;23.334;2023-06-14T09:10:34;14.23;;;12.80;;
12474;SDS011;6302;42.624;23.334;2023-06-14T09:13:02;14.73;;;12.18;;
12474;SDS011;6302;42.624;23.334;2023-06-14T09:15:29;14.60;;;13.10;;
12474;SDS011;6302;42.624;23.334;2023-06-14T09:17:56;15.23;;;13.60;;
12474;SDS011;6302;42.624;23.334;2023-06-14T09:20:23;15.17;;;12.43;;
12474;SDS011;6302;42.624;23.334;2023-06-14T09:22:50;16.30;;;13.27;;
12474;SDS011;6302;42.624;23.334;2023-06-14T09:25:18;14.43;;;12.73;;
12474;SDS011;6302;42.624;23.334;2023-06-14T09:27:46;15.60;;;12.93;;
12474;SDS011;6302;42.624;23.334;2023-06-14T09:30:13;14.30;;;12.77;;
12474;SDS011;6302;42.624;23.334;2023-06-14T09:32:40;13.65;;;12.18;;
12474;SDS011;6302;42.624;23.334;2023-06-14T09:35:08;16.08;;;12.10;;
12474;SDS011;6302;42.624;23.334;2023-06-14T09:37:35;13.50;;;12.07;;
12474;SDS011;6302;42.624;23.334;2023-06-14T09:40:03;13.55;;;12.05;;
12474;SDS011;6302;42.624;23.334;2023-06-14T09:42:32;13.60;;;11.13;;
12474;SDS011;6302;42.624;23.334;2023-06-14T09:45:02;13.23;;;11.85;;
12474;SDS011;6302;42.624;23.334;2023-06-14T09:47:30;16.23;;;12.48;;
12474;SDS011;6302;42.624;23.334;2023-06-14T09:49:57;12.68;;;11.45;;
12474;SDS011;6302;42.624;23.334;2023-06-14T09:52:25;13.65;;;11.80;;
12474;SDS011;6302;42.624;23.334;2023-06-14T09:54:53;15.45;;;11.43;;
12474;SDS011;6302;42.624;23.334;2023-06-14T09:57:22;12.47;;;11.17;;
12474;SDS011;6302;42.624;23.334;2023-06-14T09:59:52;13.82;;;11.55;;
12474;SDS011;6302;42.624;23.334;2023-06-14T10:02:26;13.60;;;11.35;;
12474;SDS011;6302;42.624;23.334;2023-06-14T10:04:58;12.75;;;11.43;;
12474;SDS011;6302;42.624;23.334;2023-06-14T10:07:32;12.77;;;11.47;;
12474;SDS011;6302;42.624;23.334;2023-06-14T10:10:01;12.30;;;11.00;;
12474;SDS011;6302;42.624;23.334;2023-06-14T10:12:30;13.75;;;12.38;;
12474;SDS011;6302;42.624;23.334;2023-06-14T10:14:59;13.55;;;12.00;;
12474;SDS011;6302;42.624;23.334;2023-06-14T10:17:33;14.02;;;12.57;;
12474;SDS011;6302;42.624;23.334;2023-06-14T10:20:10;16.00;;;11.30;;
12474;SDS011;6302;42.624;23.334;2023-06-14T10:22:47;11.75;;;10.55;;
12474;SDS011;6302;42.624;23.334;2023-06-14T10:25:26;13.35;;;11.82;;
12474;SDS011;6302;42.624;23.334;2023-06-14T10:28:02;12.63;;;11.23;;
12474;SDS011;6302;42.624;23.334;2023-06-14T10:30:30;13.18;;;11.88;;
12474;SDS011;6302;42.624;23.334;2023-06-14T10:33:05;12.52;;;11.20;;
12474;SDS011;6302;42.624;23.334;2023-06-14T10:35:32;12.07;;;10.70;;
12474;SDS011;6302;42.624;23.334;2023-06-14T10:38:09;13.52;;;12.13;;
12474;SDS011;6302;42.624;23.334;2023-06-14T10:40:38;13.95;;;11.88;;
12474;SDS011;6302;42.624;23.334;2023-06-14T10:46:11;17.10;;;11.75;;
12474;SDS011;6302;42.624;23.334;2023-06-14T10:48:43;11.18;;;10.10;;
12474;SDS011;6302;42.624;23.334;2023-06-14T10:51:20;12.20;;;11.10;;
12474;SDS011;6302;42.624;23.334;2023-06-14T10:53:47;11.38;;;10.38;;
12474;SDS011;6302;42.624;23.334;2023-06-14T10:56:26;12.93;;;10.95;;
12474;SDS011;6302;42.624;23.334;2023-06-14T10:58:54;11.98;;;10.65;;
12474;SDS011;6302;42.624;23.334;2023-06-14T11:01:27;13.27;;;10.90;;
12474;SDS011;6302;42.624;23.334;2023-06-14T11:04:10;10.75;;;9.75;;
12474;SDS011;6302;42.624;23.334;2023-06-14T11:06:45;12.85;;;10.55;;
12474;SDS011;6302;42.624;23.334;2023-06-14T11:12:24;9.88;;;8.85;;
12474;SDS011;6302;42.624;23.334;2023-06-14T11:14:54;9.95;;;8.95;;
12474;SDS011;6302;42.624;23.334;2023-06-14T11:17:21;9.18;;;8.27;;
12474;SDS011;6302;42.624;23.334;2023-06-14T11:19:49;10.45;;;9.18;;
12474;SDS011;6302;42.624;23.334;2023-06-14T11:22:16;11.20;;;9.70;;
12474;SDS011;6302;42.624;23.334;2023-06-14T11:24:42;10.20;;;9.27;;
12474;SDS011;6302;42.624;23.334;2023-06-14T11:27:10;13.70;;;9.35;;
12474;SDS011;6302;42.624;23.334;2023-06-14T11:29:37;10.73;;;9.65;;
12474;SDS011;6302;42.624;23.334;2023-06-14T11:32:06;8.65;;;7.90;;
12474;SDS011;6302;42.624;23.334;2023-06-14T11:34:37;10.25;;;8.90;;
12474;SDS011;6302;42.624;23.334;2023-06-14T11:37:05;9.77;;;8.73;;
12474;SDS011;6302;42.624;23.334;2023-06-14T11:39:32;10.52;;;9.50;;
12474;SDS011;6302;42.624;23.334;2023-06-14T11:41:59;9.23;;;8.32;;
12474;SDS011;6302;42.624;23.334;2023-06-14T11:44:28;9.05;;;8.10;;
12474;SDS011;6302;42.624;23.334;2023-06-14T11:46:55;8.40;;;7.60;;
12474;SDS011;6302;42.624;23.334;2023-06-14T11:49:23;9.80;;;8.13;;
12474;SDS011;6302;42.624;23.334;2023-06-14T11:51:50;8.90;;;8.00;;
12474;SDS011;6302;42.624;23.334;2023-06-14T11:54:18;9.40;;;8.60;;
12474;SDS011;6302;42.624;23.334;2023-06-14T11:56:45;9.27;;;8.38;;
12474;SDS011;6302;42.624;23.334;2023-06-14T11:59:13;9.27;;;8.48;;
12474;SDS011;6302;42.624;23.334;2023-06-14T12:01:42;8.15;;;7.35;;
12474;SDS011;6302;42.624;23.334;2023-06-14T12:04:10;9.23;;;8.43;;
12474;SDS011;6302;42.624;23.334;2023-06-14T12:06:37;7.65;;;6.90;;
12474;SDS011;6302;42.624;23.334;2023-06-14T12:09:04;9.40;;;6.88;;
12474;SDS011;6302;42.624;23.334;2023-06-14T12:11:37;7.97;;;7.28;;
12474;SDS011;6302;42.624;23.334;2023-06-14T12:14:04;7.70;;;7.10;;
12474;SDS011;6302;42.624;23.334;2023-06-14T12:16:31;6.72;;;6.18;;
12474;SDS011;6302;42.624;23.334;2023-06-14T12:19:00;7.68;;;6.40;;
12474;SDS011;6302;42.624;23.334;2023-06-14T12:21:35;6.97;;;6.38;;
12474;SDS011;6302;42.624;23.334;2023-06-14T12:24:04;7.25;;;6.55;;
12474;SDS011;6302;42.624;23.334;2023-06-14T12:26:32;7.45;;;6.68;;
12474;SDS011;6302;42.624;23.334;2023-06-14T12:29:00;6.85;;;6.25;;
12474;SDS011;6302;42.624;23.334;2023-06-14T12:31:27;7.45;;;6.40;;
12474;SDS011;6302;42.624;23.334;2023-06-14T12:33:54;6.95;;;6.35;;
12474;SDS011;6302;42.624;23.334;2023-06-14T12:36:21;7.47;;;6.63;;
12474;SDS011;6302;42.624;23.334;2023-06-14T12:38:48;6.93;;;6.32;;
12474;SDS011;6302;42.624;23.334;2023-06-14T12:41:18;7.00;;;6.35;;
12474;SDS011;6302;42.624;23.334;2023-06-14T12:43:46;6.55;;;5.95;;
12474;SDS011;6302;42.624;23.334;2023-06-14T12:46:16;7.38;;;6.78;;
12474;SDS011;6302;42.624;23.334;2023-06-14T12:48:43;7.60;;;6.90;;
12474;SDS011;6302;42.624;23.334;2023-06-14T12:51:10;6.97;;;6.40;;
12474;SDS011;6302;42.624;23.334;2023-06-14T12:53:37;7.82;;;7.13;;
12474;SDS011;6302;42.624;23.334;2023-06-14T12:56:04;7.38;;;6.60;;
12474;SDS011;6302;42.624;23.334;2023-06-14T12:58:31;7.32;;;6.68;;
12474;SDS011;6302;42.624;23.334;2023-06-14T13:00:57;9.48;;;7.57;;
12474;SDS011;6302;42.624;23.334;2023-06-14T13:03:26;7.45;;;6.85;;
12474;SDS011;6302;42.624;23.334;2023-06-14T13:05:54;7.68;;;6.45;;
12474;SDS011;6302;42.624;23.334;2023-06-14T13:08:21;7.03;;;6.43;;
12474;SDS011;6302;42.624;23.334;2023-06-14T13:10:48;7.55;;;6.25;;
12474;SDS011;6302;42.624;23.334;2023-06-14T13:13:16;7.03;;;6.38;;
12474;SDS011;6302;42.624;23.334;2023-06-14T13:15:46;10.32;;;7.35;;
12474;SDS011;6302;42.624;23.334;2023-06-14T13:18:14;8.45;;;7.57;;
12474;SDS011;6302;42.624;23.334;2023-06-14T13:20:43;7.15;;;6.45;;
12474;SDS011;6302;42.624;23.334;2023-06-14T13:23:09;6.43;;;5.40;;
12474;SDS011;6302;42.624;23.334;2023-06-14T13:25:36;8.27;;;5.27;;
12474;SDS011;6302;42.624;23.334;2023-06-14T13:28:04;9.57;;;5.65;;
12474;SDS011;6302;42.624;23.334;2023-06-14T13:30:37;7.83;;;6.23;;
12474;SDS011;6302;42.624;23.334;2023-06-14T13:33:06;7.15;;;6.07;;
12474;SDS011;6302;42.624;23.334;2023-06-14T13:35:32;12.67;;;6.97;;
12474;SDS011;6302;42.624;23.334;2023-06-14T13:38:04;7.00;;;6.38;;
12474;SDS011;6302;42.624;23.334;2023-06-14T13:40:31;9.02;;;8.13;;
12474;SDS011;6302;42.624;23.334;2023-06-14T13:42:58;10.25;;;8.55;;
12474;SDS011;6302;42.624;23.334;2023-06-14T13:45:24;9.57;;;7.87;;
12474;SDS011;6302;42.624;23.334;2023-06-14T13:48:05;9.30;;;7.82;;
12474;SDS011;6302;42.624;23.334;2023-06-14T13:50:32;9.50;;;6.77;;
12474;SDS011;6302;42.624;23.334;2023-06-14T13:53:00;7.87;;;7.13;;
12474;SDS011;6302;42.624;23.334;2023-06-14T13:55:28;7.63;;;6.93;;
12474;SDS011;6302;42.624;23.334;2023-06-14T13:57:55;7.83;;;7.07;;
12474;SDS011;6302;42.624;23.334;2023-06-14T14:00:24;7.13;;;6.40;;
12474;SDS011;6302;42.624;23.334;2023-06-14T14:02:50;8.03;;;6.50;;
12474;SDS011;6302;42.624;23.334;2023-06-14T14:05:19;7.80;;;6.97;;
12474;SDS011;6302;42.624;23.334;2023-06-14T14:07:53;6.77;;;5.83;;
12474;SDS011;6302;42.624;23.334;2023-06-14T14:10:20;7.80;;;5.80;;
12474;SDS011;6302;42.624;23.334;2023-06-14T14:12:50;5.00;;;4.50;;
12474;SDS011;6302;42.624;23.334;2023-06-14T14:15:18;5.50;;;4.37;;
12474;SDS011;6302;42.624;23.334;2023-06-14T14:17:45;4.13;;;3.73;;
12474;SDS011;6302;42.624;23.334;2023-06-14T14:20:15;4.40;;;4.00;;
12474;SDS011;6302;42.624;23.334;2023-06-14T14:22:42;4.60;;;4.20;;
12474;SDS011;6302;42.624;23.334;2023-06-14T14:25:09;5.30;;;4.40;;
12474;SDS011;6302;42.624;23.334;2023-06-14T14:27:36;5.97;;;4.83;;
12474;SDS011;6302;42.624;23.334;2023-06-14T14:30:04;7.87;;;5.30;;
12474;SDS011;6302;42.624;23.334;2023-06-14T14:32:32;5.60;;;5.10;;
12474;SDS011;6302;42.624;23.334;2023-06-14T14:34:59;5.70;;;5.03;;
12474;SDS011;6302;42.624;23.334;2023-06-14T14:37:25;5.53;;;5.03;;
12474;SDS011;6302;42.624;23.334;2023-06-14T14:39:52;6.20;;;5.60;;
12474;SDS011;6302;42.624;23.334;2023-06-14T14:42:19;5.90;;;5.40;;
12474;SDS011;6302;42.624;23.334;2023-06-14T14:44:46;6.53;;;5.87;;
12474;SDS011;6302;42.624;23.334;2023-06-14T14:47:14;6.77;;;6.03;;
12474;SDS011;6302;42.624;23.334;2023-06-14T14:49:41;7.07;;;6.37;;
12474;SDS011;6302;42.624;23.334;2023-06-14T14:52:08;6.87;;;6.27;;
12474;SDS011;6302;42.624;23.334;2023-06-14T14:54:35;7.90;;;7.20;;
12474;SDS011;6302;42.624;23.334;2023-06-14T14:57:04;8.30;;;7.50;;
12474;SDS011;6302;42.624;23.334;2023-06-14T14:59:32;10.70;;;7.70;;